createdAt,value
2018-06-19T00:01:08.683Z,15.50
2018-06-19T00:03:36.795Z,15.50
2018-06-19T00:06:05.065Z,15.40
2018-06-19T00:08:33.618Z,15.30
2018-06-19T00:13:30.100Z,15.20
2018-06-19T00:18:28.938Z,15.10
2018-06-19T00:20:59.919Z,15.10
2018-06-19T00:30:52.372Z,14.80
2018-06-19T00:35:48.596Z,14.80
2018-06-19T00:38:16.766Z,14.70
2018-06-19T00:40:45.139Z,14.60
2018-06-19T00:43:13.364Z,14.60
2018-06-19T00:45:41.639Z,14.60
2018-06-19T00:48:10.041Z,14.50
2018-06-19T00:50:38.365Z,14.50
2018-06-19T00:53:06.547Z,14.40
2018-06-19T00:55:34.873Z,14.40
2018-06-19T00:58:03.774Z,14.30
2018-06-19T01:00:32.042Z,14.30
2018-06-19T01:03:00.440Z,14.20
2018-06-19T01:05:28.868Z,14.20
2018-06-19T01:07:57.236Z,14.20
2018-06-19T01:10:25.441Z,14.20
2018-06-19T01:12:53.462Z,14.30
2018-06-19T01:15:21.740Z,14.30
2018-06-19T01:17:50.016Z,14.40
2018-06-19T01:22:46.499Z,14.60
2018-06-19T01:25:14.932Z,14.60
2018-06-19T01:27:43.177Z,14.70
2018-06-19T01:30:11.515Z,14.80
2018-06-19T01:32:39.782Z,14.80
2018-06-19T01:35:08.316Z,14.90
2018-06-19T01:40:04.681Z,15.00
2018-06-19T01:42:32.992Z,15.00
2018-06-19T01:45:45.455Z,14.90
2018-06-19T01:48:13.661Z,14.90
2018-06-19T01:50:41.847Z,14.80
2018-06-19T01:53:09.953Z,14.70
2018-06-19T01:58:06.445Z,14.60
2018-06-19T02:00:34.845Z,14.50
2018-06-19T02:03:03.160Z,14.40
2018-06-19T02:05:31.417Z,14.40
2018-06-19T02:07:59.655Z,14.40
2018-06-19T02:12:56.022Z,14.40
2018-06-19T02:15:24.542Z,14.40
2018-06-19T02:17:52.915Z,14.40
2018-06-19T02:20:21.525Z,14.40
2018-06-19T02:22:49.955Z,14.40
2018-06-19T02:27:46.358Z,14.50
2018-06-19T02:30:14.525Z,14.60
2018-06-19T02:32:42.645Z,14.70
2018-06-19T02:35:11.031Z,14.70
2018-06-19T02:37:39.305Z,14.70
2018-06-19T02:40:07.726Z,14.80
2018-06-19T02:42:36.040Z,14.80
2018-06-19T02:45:04.619Z,14.90
2018-06-19T02:47:33.015Z,14.90
2018-06-19T02:50:01.417Z,15.00
2018-06-19T02:52:29.707Z,15.00
2018-06-19T02:57:26.190Z,14.90
2018-06-19T02:59:54.723Z,14.80
2018-06-19T03:02:22.898Z,14.70
2018-06-19T03:04:51.191Z,14.60
2018-06-19T03:07:19.579Z,14.60
2018-06-19T03:09:47.663Z,14.60
2018-06-19T03:12:15.920Z,14.50
2018-06-19T03:14:44.253Z,14.50
2018-06-19T03:17:12.799Z,14.50
2018-06-19T03:19:41.183Z,14.50
2018-06-19T03:29:33.653Z,14.60
2018-06-19T03:32:01.965Z,14.70
2018-06-19T03:39:26.423Z,14.90
2018-06-19T03:41:55.326Z,15.00
2018-06-19T03:44:23.619Z,15.00
2018-06-19T03:46:52.055Z,15.10
2018-06-19T03:51:48.546Z,15.30
2018-06-19T03:56:44.837Z,15.50
2018-06-19T03:59:14.243Z,15.50
2018-06-19T04:01:42.531Z,15.70
2018-06-19T04:04:11.253Z,15.80
2018-06-19T04:06:39.533Z,15.80
2018-06-19T04:09:08.483Z,15.90
2018-06-19T04:11:37.077Z,15.90
2018-06-19T04:14:05.480Z,15.90
2018-06-19T04:16:33.758Z,16.00
2018-06-19T04:21:30.343Z,16.10
2018-06-19T04:23:58.663Z,16.20
2018-06-19T04:28:54.634Z,16.20
2018-06-19T04:33:50.836Z,16.30
2018-06-19T04:36:19.235Z,16.30
2018-06-19T04:38:47.828Z,16.50
2018-06-19T04:43:44.013Z,17.00
2018-06-19T04:48:40.474Z,19.10
2018-06-19T04:51:08.684Z,20.20
2018-06-19T04:53:37.788Z,21.20
2018-06-19T04:56:06.025Z,21.80
2018-06-19T04:58:34.416Z,21.70
2018-06-19T05:01:02.785Z,21.40
2018-06-19T05:03:31.099Z,21.00
2018-06-19T05:05:59.366Z,20.70
2018-06-19T05:08:27.511Z,20.40
2018-06-19T05:10:55.802Z,20.10
2018-06-19T05:15:52.404Z,20.00
2018-06-19T05:18:20.698Z,20.00
2018-06-19T05:20:49.065Z,20.00
2018-06-19T05:23:17.287Z,20.00
2018-06-19T05:25:46.328Z,19.90
2018-06-19T05:28:14.701Z,19.70
2018-06-19T05:30:42.878Z,19.60
2018-06-19T05:35:39.340Z,19.20
2018-06-19T05:38:07.797Z,19.10
2018-06-19T05:40:36.104Z,19.00
2018-06-19T05:43:04.874Z,18.80
2018-06-19T05:45:32.991Z,18.70
2018-06-19T05:50:29.480Z,18.70
2018-06-19T05:55:25.851Z,18.70
2018-06-19T05:57:54.174Z,18.70
2018-06-19T06:00:22.527Z,18.80
2018-06-19T06:02:50.858Z,19.00
2018-06-19T06:07:48.045Z,19.30
2018-06-19T06:12:44.148Z,19.50
2018-06-19T06:15:12.657Z,19.70
2018-06-19T06:20:08.916Z,20.10
2018-06-19T06:22:37.264Z,20.40
2018-06-19T06:25:05.629Z,20.70
2018-06-19T06:27:34.414Z,21.00
2018-06-19T06:30:02.945Z,21.40
2018-06-19T06:34:59.232Z,22.60
2018-06-19T06:39:55.518Z,23.10
2018-06-19T06:42:24.037Z,23.00
2018-06-19T06:44:52.364Z,22.70
2018-06-19T06:47:20.631Z,22.50
2018-06-19T06:52:17.444Z,21.90
2018-06-19T06:54:45.728Z,21.60
2018-06-19T06:57:14.106Z,21.40
2018-06-19T06:59:42.630Z,21.20
2018-06-19T07:02:10.805Z,21.10
2018-06-19T07:04:39.121Z,21.00
2018-06-19T07:07:07.403Z,20.90
2018-06-19T07:09:35.801Z,20.60
2018-06-19T07:12:04.945Z,20.40
2018-06-19T07:14:33.329Z,20.20
2018-06-19T07:19:29.767Z,19.90
2018-06-19T07:21:58.016Z,19.70
2018-06-19T07:26:55.133Z,19.60
2018-06-19T07:29:23.395Z,19.60
2018-06-19T07:31:51.838Z,19.70
2018-06-19T07:34:20.100Z,19.70
2018-06-19T07:39:16.474Z,19.60
2018-06-19T07:41:44.930Z,19.40
2018-06-19T07:44:13.331Z,19.30
2018-06-19T07:46:41.702Z,19.20
2018-06-19T07:51:38.075Z,19.10
2018-06-19T07:54:06.486Z,19.10
2018-06-19T08:01:31.398Z,19.20
2018-06-19T08:03:59.884Z,19.30
2018-06-19T08:08:57.184Z,19.40
2018-06-19T08:11:25.499Z,19.60
2018-06-19T08:16:22.075Z,20.00
2018-06-19T08:18:50.364Z,20.30
2018-06-19T08:21:18.794Z,20.40
2018-06-19T08:23:47.169Z,20.60
2018-06-19T08:26:15.607Z,20.80
2018-06-19T08:28:43.995Z,21.10
2018-06-19T08:31:12.171Z,21.60
2018-06-19T08:36:08.504Z,22.00
2018-06-19T08:38:36.844Z,22.20
2018-06-19T08:41:05.146Z,22.50
2018-06-19T08:43:33.565Z,22.50
2018-06-19T08:48:30.087Z,22.50
2018-06-19T08:50:58.361Z,22.60
2018-06-19T08:53:27.374Z,22.80
2018-06-19T08:55:55.683Z,22.70
2018-06-19T08:58:23.829Z,22.70
2018-06-19T09:00:52.573Z,22.60
2018-06-19T09:03:20.963Z,22.80
2018-06-19T09:05:49.273Z,23.10
2018-06-19T09:08:17.660Z,23.20
2018-06-19T09:13:14.023Z,23.50
2018-06-19T09:15:42.557Z,23.70
2018-06-19T09:18:10.862Z,23.90
2018-06-19T09:20:39.261Z,23.80
2018-06-19T09:23:07.646Z,23.50
2018-06-19T09:30:32.127Z,22.50
2018-06-19T09:35:28.533Z,22.20
2018-06-19T09:37:57.167Z,22.20
2018-06-19T09:40:25.530Z,22.30
2018-06-19T09:50:17.814Z,22.60
2018-06-19T09:52:46.409Z,22.40
2018-06-19T09:55:14.681Z,22.20
2018-06-19T09:57:43.557Z,22.00
2018-06-19T10:00:16.613Z,21.80
2018-06-19T10:02:45.113Z,21.60
2018-06-19T10:07:41.549Z,21.50
2018-06-19T10:10:09.588Z,21.50
2018-06-19T10:12:37.880Z,21.70
2018-06-19T10:20:02.851Z,22.90
2018-06-19T10:22:31.107Z,23.10
2018-06-19T10:24:59.485Z,23.20
2018-06-19T10:37:20.147Z,23.50
2018-06-19T10:42:16.614Z,23.30
2018-06-19T10:44:44.855Z,23.20
2018-06-19T10:47:13.140Z,23.20
2018-06-19T10:57:06.513Z,23.80
2018-06-19T10:59:34.677Z,23.80
2018-06-19T11:02:03.121Z,23.80
2018-06-19T11:07:00.299Z,23.60
2018-06-19T11:09:28.834Z,23.50
2018-06-19T11:14:25.316Z,23.80
2018-06-19T11:16:53.708Z,24.00
2018-06-19T11:19:22.129Z,24.30
2018-06-19T11:24:19.346Z,24.40
2018-06-19T11:26:47.527Z,24.30
2018-06-19T11:29:16.042Z,24.20
2018-06-19T11:34:12.502Z,23.90
2018-06-19T11:36:41.042Z,23.90
2018-06-19T11:39:12.326Z,23.90
2018-06-19T11:41:40.780Z,23.90
2018-06-19T11:44:09.179Z,24.00
2018-06-19T11:49:05.851Z,24.20
2018-06-19T11:51:34.181Z,24.20
2018-06-19T11:56:30.801Z,24.00
2018-06-19T11:58:59.180Z,23.80
2018-06-19T12:03:55.456Z,23.40
2018-06-19T12:08:51.867Z,23.50
2018-06-19T12:11:21.170Z,23.70
2018-06-19T12:18:45.751Z,23.50
2018-06-19T12:21:14.165Z,23.30
2018-06-19T12:23:42.705Z,23.20
2018-06-19T12:26:11.037Z,23.20
2018-06-19T12:28:39.656Z,23.20
2018-06-19T12:31:08.079Z,23.20
2018-06-19T12:33:36.416Z,23.20
2018-06-19T12:36:05.623Z,23.30
2018-06-19T12:38:33.779Z,23.30
2018-06-19T12:52:08.072Z,23.20
2018-06-19T12:55:50.321Z,23.10
2018-06-19T12:58:18.834Z,23.00
2018-06-19T13:00:47.326Z,23.00
2018-06-19T13:03:26.561Z,22.90
2018-06-19T13:08:28.387Z,22.80
2018-06-19T13:10:56.804Z,22.70
2018-06-19T13:13:36.236Z,22.60
2018-06-19T13:16:04.652Z,22.50
2018-06-19T13:18:44.371Z,22.40
2018-06-19T13:21:12.804Z,22.40
2018-06-19T13:23:41.055Z,22.30
2018-06-19T13:26:09.184Z,22.40
2018-06-19T13:30:51.874Z,22.50
2018-06-19T13:33:20.359Z,22.70
2018-06-19T13:35:48.967Z,23.20
2018-06-19T13:38:17.521Z,23.40
2018-06-19T13:41:16.714Z,23.70
2018-06-19T13:43:56.932Z,23.90
2018-06-19T13:46:25.390Z,24.10
2018-06-19T13:48:53.966Z,24.20
2018-06-19T13:51:23.341Z,24.30
2018-06-19T13:53:51.844Z,24.30
2018-06-19T13:57:45.967Z,24.30
2018-06-19T14:00:22.020Z,24.30
2018-06-19T14:02:50.552Z,24.40
2018-06-19T14:05:19.993Z,24.50
2018-06-19T14:08:07.886Z,24.50
2018-06-19T14:10:47.936Z,24.60
2018-06-19T14:18:14.966Z,24.90
2018-06-19T14:20:43.592Z,25.00
2018-06-19T14:23:12.290Z,25.20
2018-06-19T14:28:08.673Z,25.40
2018-06-19T14:33:06.055Z,25.60
2018-06-19T14:35:34.560Z,25.90
2018-06-19T14:38:02.941Z,26.00
2018-06-19T14:40:31.521Z,26.00
2018-06-19T14:42:59.583Z,25.80
2018-06-19T14:45:27.915Z,25.60
2018-06-19T14:47:56.166Z,25.40
2018-06-19T14:50:24.447Z,25.30
2018-06-19T14:52:52.784Z,25.10
2018-06-19T14:55:21.174Z,24.90
2018-06-19T14:57:49.824Z,24.80
2018-06-19T15:00:17.869Z,24.70
2018-06-19T15:05:13.963Z,24.60
2018-06-19T15:07:58.577Z,24.50
2018-06-19T15:10:26.854Z,24.50
2018-06-19T15:12:55.007Z,24.30
2018-06-19T15:15:23.298Z,24.20
2018-06-19T15:17:52.320Z,24.20
2018-06-19T15:20:20.956Z,24.20
2018-06-19T15:22:49.421Z,24.10
2018-06-19T15:25:17.890Z,24.10
2018-06-19T15:27:46.305Z,24.00
2018-06-19T15:30:14.500Z,24.10
2018-06-19T15:32:42.741Z,24.10
2018-06-19T15:35:11.008Z,24.00
2018-06-19T15:40:07.596Z,24.00
2018-06-19T15:45:04.281Z,23.90
2018-06-19T15:47:32.500Z,23.90
2018-06-19T15:50:01.172Z,23.90
2018-06-19T15:52:29.603Z,23.90
2018-06-19T15:57:26.645Z,23.80
2018-06-19T15:59:54.905Z,23.80
2018-06-19T16:02:23.184Z,23.80
2018-06-19T16:09:47.697Z,23.50
2018-06-19T16:12:16.072Z,23.50
2018-06-19T16:17:12.383Z,23.40
2018-06-19T16:19:40.767Z,23.30
2018-06-19T16:24:37.059Z,23.10
2018-06-19T16:29:33.005Z,23.00
2018-06-19T16:32:01.430Z,22.80
2018-06-19T16:39:26.186Z,22.70
2018-06-19T16:41:55.244Z,22.60
2018-06-19T16:44:23.522Z,22.60
2018-06-19T16:46:51.849Z,22.50
2018-06-19T16:49:20.133Z,22.50
2018-06-19T16:51:48.512Z,22.50
2018-06-19T16:54:16.868Z,22.60
2018-06-19T16:56:45.114Z,22.60
2018-06-19T16:59:13.512Z,22.70
2018-06-19T17:01:42.494Z,22.70
2018-06-19T17:04:11.429Z,22.70
2018-06-19T17:06:39.526Z,22.70
2018-06-19T17:11:37.363Z,22.60
2018-06-19T17:16:33.732Z,22.50
2018-06-19T17:19:02.462Z,22.50
2018-06-19T17:21:30.850Z,22.40
2018-06-19T17:23:59.269Z,22.30
2018-06-19T17:26:27.873Z,22.20
2018-06-19T17:28:56.266Z,22.20
2018-06-19T17:31:24.575Z,22.20
2018-06-19T17:33:52.877Z,22.10
2018-06-19T17:36:21.836Z,22.00
2018-06-19T17:38:50.114Z,22.00
2018-06-19T17:41:18.160Z,21.90
2018-06-19T17:46:14.775Z,21.70
2018-06-19T17:48:43.351Z,21.70
2018-06-19T17:53:40.049Z,21.60
2018-06-19T17:58:37.056Z,21.50
2018-06-19T18:03:33.566Z,21.40
2018-06-19T18:06:02.040Z,21.40
2018-06-19T18:10:58.325Z,21.30
2018-06-19T18:13:26.519Z,21.30
2018-06-19T18:15:54.813Z,21.20
2018-06-19T18:18:23.238Z,21.20
2018-06-19T18:20:51.430Z,21.10
2018-06-19T18:25:47.929Z,21.10
2018-06-19T18:30:44.286Z,20.90
2018-06-19T18:33:12.831Z,20.90
2018-06-19T18:35:41.097Z,20.80
2018-06-19T18:40:21.036Z,20.80
2018-06-19T18:42:49.436Z,20.70
2018-06-19T18:45:17.951Z,20.60
2018-06-19T18:47:46.337Z,20.60
2018-06-19T18:50:14.478Z,20.50
2018-06-19T18:52:42.662Z,20.50
2018-06-19T18:55:10.915Z,20.50
2018-06-19T18:57:39.227Z,20.40
2018-06-19T19:00:08.132Z,20.40
2018-06-19T19:02:36.411Z,20.30
2018-06-19T19:05:05.144Z,20.20
2018-06-19T19:07:33.672Z,20.10
2018-06-19T19:10:08.033Z,20.10
2018-06-19T19:12:36.485Z,20.00
2018-06-19T19:15:10.171Z,19.90
2018-06-19T19:17:43.811Z,19.80
2018-06-19T19:20:12.211Z,19.80
2018-06-19T19:22:40.595Z,19.70
2018-06-19T19:25:08.911Z,19.70
2018-06-19T19:27:42.460Z,19.60
2018-06-19T19:30:10.914Z,19.60
2018-06-19T19:32:39.457Z,19.60
2018-06-19T19:35:07.857Z,19.60
2018-06-19T19:37:41.635Z,19.50
2018-06-19T19:40:09.917Z,19.50
2018-06-19T19:47:40.028Z,19.40
2018-06-19T19:50:08.664Z,19.40
2018-06-19T19:52:36.950Z,19.40
2018-06-19T19:55:05.654Z,19.40
2018-06-19T19:57:40.220Z,19.30
2018-06-19T20:00:09.859Z,19.20
2018-06-19T20:02:39.511Z,19.20
2018-06-19T20:05:07.738Z,19.20
2018-06-19T20:12:33.708Z,19.10
2018-06-19T20:15:02.888Z,19.10
2018-06-19T20:17:31.391Z,19.10
2018-06-19T20:19:59.741Z,19.10
2018-06-19T20:22:28.281Z,19.00
2018-06-19T20:24:56.786Z,19.00
2018-06-19T20:27:25.164Z,19.00
2018-06-19T20:32:21.542Z,19.00
2018-06-19T20:34:50.873Z,19.00
2018-06-19T20:37:19.300Z,18.90
2018-06-19T20:39:47.998Z,18.90
2018-06-19T20:42:16.497Z,18.90
2018-06-19T20:44:45.099Z,18.90
2018-06-19T20:47:13.711Z,18.80
2018-06-19T20:49:42.208Z,18.90
2018-06-19T20:52:10.816Z,18.80
2018-06-19T20:54:39.361Z,18.80
2018-06-19T20:57:08.193Z,18.80
2018-06-19T20:59:36.611Z,18.80
2018-06-19T21:04:33.386Z,18.70
2018-06-19T21:07:02.078Z,18.70
2018-06-19T21:09:30.414Z,18.70
2018-06-19T21:11:59.088Z,18.70
2018-06-19T21:14:27.267Z,18.70
2018-06-19T21:16:55.636Z,18.60
2018-06-19T21:19:24.329Z,18.60
2018-06-19T21:24:20.723Z,18.50
2018-06-19T21:26:49.071Z,18.50
2018-06-19T21:29:17.524Z,18.40
2018-06-19T21:31:45.721Z,18.40
2018-06-19T21:34:13.992Z,18.40
2018-06-19T21:36:43.064Z,18.40
2018-06-19T21:39:12.145Z,18.30
2018-06-19T21:41:40.392Z,18.30
2018-06-19T21:44:08.843Z,18.20
2018-06-19T21:46:37.741Z,18.20
2018-06-19T21:51:33.912Z,18.10
2018-06-19T21:54:02.443Z,18.10
2018-06-19T21:56:31.496Z,18.10
2018-06-19T21:59:00.028Z,18.00
2018-06-19T22:01:28.459Z,18.00
2018-06-19T22:03:56.753Z,18.00
2018-06-19T22:06:24.951Z,18.00
2018-06-19T22:08:53.893Z,18.00
2018-06-19T22:11:23.402Z,17.90
2018-06-19T22:13:51.674Z,17.80
2018-06-19T22:21:16.122Z,17.60
2018-06-19T22:23:44.948Z,17.60
2018-06-19T22:26:13.251Z,17.50
2018-06-19T22:28:41.589Z,17.40
2018-06-19T22:31:09.936Z,17.40
2018-06-19T22:33:38.245Z,17.30
2018-06-19T22:36:06.579Z,17.20
2018-06-19T22:38:35.104Z,17.10
2018-06-19T22:41:03.336Z,17.00
2018-06-19T22:43:32.266Z,16.90
2018-06-19T22:46:00.646Z,16.90
2018-06-19T22:48:28.946Z,16.80
2018-06-19T22:50:57.347Z,16.70
2018-06-19T22:53:25.431Z,16.60
2018-06-19T22:55:53.752Z,16.50
2018-06-19T23:03:19.336Z,16.40
2018-06-19T23:05:47.774Z,16.30
2018-06-19T23:08:16.165Z,16.30
2018-06-19T23:10:44.466Z,16.20
2018-06-19T23:13:12.652Z,16.10
2018-06-19T23:15:40.935Z,16.10
2018-06-19T23:20:38.067Z,16.00
2018-06-19T23:23:06.584Z,16.00
2018-06-19T23:25:34.942Z,16.00
2018-06-19T23:28:03.342Z,15.90
2018-06-19T23:32:59.958Z,15.90
2018-06-19T23:37:56.653Z,15.80
2018-06-19T23:40:24.849Z,15.80
2018-06-19T23:45:21.320Z,15.80
2018-06-19T23:47:49.721Z,15.80
2018-06-19T23:50:18.041Z,15.70
2018-06-19T23:55:14.822Z,15.70
